Time;durP1;ratioP1;P1;durP2;ratioP2;P2;SDS_P1;SDS_P2;PMS_P1;PMS_P2;Temp;Humidity;BMP_temperature;BMP_pressure;BME280_temperature;BME280_humidity;BME280_pressure;Samples;Min_cycle;Max_cycle;Signal;HPM_P1;HPM_P2
2023/07/13 00:02:05;;;;;;;0.20;0.20;;;;;;;;;;5091652;28;20043;-72
2023/07/13 00:04:31;;;;;;;0.20;0.20;;;;;;;;;;5091317;28;20032;-74
2023/07/13 00:06:56;;;;;;;0.20;0.20;;;;;;;;;;5090211;28;20066;-71
2023/07/13 00:09:22;;;;;;;6.13;3.50;;;;;;;;;;5091878;28;20050;-73
2023/07/13 00:11:51;;;;;;;0.60;0.60;;;;;;;;;;5090235;28;20043;-71
2023/07/13 00:14:16;;;;;;;1.92;1.75;;;;;;;;;;5089823;28;20602;-74
2023/07/13 00:16:43;;;;;;;1.73;1.63;;;;;;;;;;5091477;28;20036;-71
2023/07/13 00:19:09;;;;;;;0.20;0.20;;;;;;;;;;5091364;28;20101;-74
2023/07/13 00:21:35;;;;;;;0.20;0.20;;;;;;;;;;5091195;28;20081;-71
2023/07/13 00:24:01;;;;;;;0.30;0.30;;;;;;;;;;5091265;28;20028;-73
2023/07/13 00:26:26;;;;;;;0.20;0.20;;;;;;;;;;5085392;28;20032;-74
2023/07/13 00:28:52;;;;;;;0.20;0.20;;;;;;;;;;5070977;28;20031;-72
2023/07/13 00:31:17;;;;;;;0.70;0.70;;;;;;;;;;5052936;28;20115;-72
2023/07/13 00:33:43;;;;;;;0.20;0.20;;;;;;;;;;5053132;28;20059;-70
2023/07/13 00:36:10;;;;;;;3.20;2.75;;;;;;;;;;5070507;28;20045;-71
2023/07/13 00:38:35;;;;;;;0.20;0.20;;;;;;;;;;5070328;28;20036;-70
2023/07/13 00:41:03;;;;;;;0.20;0.20;;;;;;;;;;5052950;28;20121;-71
2023/07/13 00:43:29;;;;;;;0.20;0.20;;;;;;;;;;5089677;28;20055;-70
2023/07/13 00:45:58;;;;;;;0.20;0.20;;;;;;;;;;5090728;28;20499;-71
2023/07/13 00:48:34;;;;;;;0.20;0.20;;;;;;;;;;5090647;28;20024;-73
2023/07/13 00:51:00;;;;;;;0.40;0.40;;;;;;;;;;5090895;28;20032;-72
2023/07/13 00:53:27;;;;;;;0.20;0.20;;;;;;;;;;5090469;28;20035;-71
2023/07/13 00:55:53;;;;;;;0.88;0.88;;;;;;;;;;5090517;28;20398;-72
2023/07/13 00:58:19;;;;;;;0.40;0.40;;;;;;;;;;5072226;28;20032;-74
2023/07/13 01:00:46;;;;;;;0.22;0.22;;;;;;;;;;5090768;28;20101;-73
2023/07/13 01:03:13;;;;;;;0.20;0.20;;;;;;;;;;5072127;28;20040;-72
2023/07/13 01:05:39;;;;;;;0.30;0.30;;;;;;;;;;5090427;28;20085;-71
2023/07/13 01:08:05;;;;;;;0.20;0.20;;;;;;;;;;5089350;28;20032;-69
2023/07/13 01:10:38;;;;;;;0.20;0.20;;;;;;;;;;5089222;28;20028;-70
2023/07/13 01:13:05;;;;;;;0.20;0.20;;;;;;;;;;5069954;28;20545;-70
2023/07/13 01:15:38;;;;;;;0.20;0.20;;;;;;;;;;5070055;28;20028;-70
2023/07/13 01:18:05;;;;;;;0.20;0.20;;;;;;;;;;5052320;28;20059;-69
2023/07/13 01:20:33;;;;;;;1.05;0.95;;;;;;;;;;5051612;28;20029;-71
2023/07/13 01:22:59;;;;;;;0.30;0.30;;;;;;;;;;5069450;28;20036;-71
2023/07/13 01:25:25;;;;;;;0.20;0.20;;;;;;;;;;5051918;28;20016;-72
2023/07/13 01:27:50;;;;;;;0.20;0.20;;;;;;;;;;5070037;28;20071;-71
2023/07/13 01:30:16;;;;;;;0.20;0.20;;;;;;;;;;5069654;28;20051;-70
2023/07/13 01:32:42;;;;;;;1.27;1.27;;;;;;;;;;5069822;28;20032;-72
2023/07/13 01:35:08;;;;;;;0.50;0.50;;;;;;;;;;5051695;28;20035;-72
2023/07/13 01:37:35;;;;;;;0.25;0.25;;;;;;;;;;5051858;28;20481;-71
2023/07/13 01:40:02;;;;;;;0.30;0.30;;;;;;;;;;5069877;28;20032;-70
2023/07/13 01:42:30;;;;;;;0.47;0.47;;;;;;;;;;5079595;28;20031;-70
2023/07/13 01:44:56;;;;;;;0.20;0.20;;;;;;;;;;5089533;28;20028;-71
2023/07/13 01:47:22;;;;;;;0.25;0.25;;;;;;;;;;5089739;28;20047;-69
2023/07/13 01:49:48;;;;;;;0.20;0.20;;;;;;;;;;5089872;28;20070;-71
2023/07/13 01:52:14;;;;;;;0.20;0.20;;;;;;;;;;5071442;28;20465;-74
2023/07/13 01:54:39;;;;;;;0.20;0.20;;;;;;;;;;5089739;28;20043;-70
2023/07/13 01:57:05;;;;;;;0.32;0.32;;;;;;;;;;5089693;28;20047;-70
2023/07/13 01:59:30;;;;;;;0.35;0.35;;;;;;;;;;5071797;28;20063;-72
2023/07/13 02:01:56;;;;;;;0.20;0.20;;;;;;;;;;5089785;28;20040;-73
2023/07/13 02:04:21;;;;;;;0.20;0.20;;;;;;;;;;5089598;28;20110;-73
2023/07/13 02:06:47;;;;;;;0.20;0.20;;;;;;;;;;5089496;28;20555;-71
2023/07/13 02:09:15;;;;;;;0.87;0.57;;;;;;;;;;5089465;28;20433;-70
2023/07/13 02:11:40;;;;;;;0.20;0.20;;;;;;;;;;5087747;28;20028;-72
2023/07/13 02:14:05;;;;;;;0.32;0.32;;;;;;;;;;5071398;28;20119;-71
2023/07/13 02:16:31;;;;;;;0.20;0.20;;;;;;;;;;5088878;28;20084;-71
2023/07/13 02:18:57;;;;;;;0.20;0.20;;;;;;;;;;5087660;28;20057;-71
2023/07/13 02:21:23;;;;;;;0.20;0.20;;;;;;;;;;5070747;28;20062;-70
2023/07/13 02:23:52;;;;;;;0.60;0.38;;;;;;;;;;5088492;28;20108;-69
2023/07/13 02:26:18;;;;;;;0.20;0.20;;;;;;;;;;5086098;28;20028;-69
2023/07/13 02:28:43;;;;;;;0.20;0.20;;;;;;;;;;5089275;28;20028;-69
2023/07/13 02:31:09;;;;;;;0.30;0.30;;;;;;;;;;5088882;28;20533;-70
2023/07/13 02:33:35;;;;;;;0.30;0.30;;;;;;;;;;5069958;28;20150;-71
2023/07/13 02:36:00;;;;;;;0.20;0.20;;;;;;;;;;5088645;28;20487;-74
2023/07/13 02:38:26;;;;;;;3.45;3.15;;;;;;;;;;5088429;28;20052;-70
2023/07/13 02:40:51;;;;;;;0.30;0.30;;;;;;;;;;5088730;28;20534;-70
2023/07/13 02:43:19;;;;;;;0.20;0.20;;;;;;;;;;5089039;28;20383;-70
2023/07/13 02:45:46;;;;;;;0.25;0.25;;;;;;;;;;5070853;28;20042;-70
2023/07/13 02:48:13;;;;;;;0.20;0.20;;;;;;;;;;5067895;28;20044;-69
2023/07/13 02:50:38;;;;;;;17.55;0.95;;;;;;;;;;5070747;28;20135;-71
2023/07/13 02:53:04;;;;;;;0.22;0.22;;;;;;;;;;5089068;28;20103;-71
2023/07/13 02:55:29;;;;;;;3.60;0.70;;;;;;;;;;5070671;28;20028;-70
2023/07/13 02:57:54;;;;;;;0.20;0.20;;;;;;;;;;5088203;28;20032;-71
2023/07/13 03:00:20;;;;;;;0.25;0.25;;;;;;;;;;5088394;28;20120;-71
2023/07/13 03:02:45;;;;;;;0.20;0.20;;;;;;;;;;5070574;28;20032;-71
2023/07/13 03:05:12;;;;;;;0.20;0.20;;;;;;;;;;5070534;28;20065;-70
2023/07/13 03:07:38;;;;;;;0.30;0.30;;;;;;;;;;5070462;28;20042;-71
2023/07/13 03:10:04;;;;;;;0.28;0.28;;;;;;;;;;5070438;28;20043;-71
2023/07/13 03:12:39;;;;;;;0.35;0.35;;;;;;;;;;5088458;28;20042;-71
2023/07/13 03:15:10;;;;;;;0.20;0.20;;;;;;;;;;5069877;28;20052;-70
2023/07/13 03:17:38;;;;;;;0.20;0.20;;;;;;;;;;5070589;28;20057;-69
2023/07/13 03:20:04;;;;;;;0.30;0.30;;;;;;;;;;5087060;28;20498;-70
2023/07/13 03:22:29;;;;;;;0.10;0.10;;;;;;;;;;5054840;28;20433;-70
2023/07/13 03:24:55;;;;;;;0.20;0.20;;;;;;;;;;5092686;28;20422;-72
2023/07/13 03:27:21;;;;;;;0.20;0.20;;;;;;;;;;5073544;28;20507;-71
2023/07/13 03:29:48;;;;;;;0.20;0.20;;;;;;;;;;5069664;28;20425;-69
2023/07/13 03:32:15;;;;;;;0.30;0.30;;;;;;;;;;5053513;28;20078;-70
2023/07/13 03:34:40;;;;;;;0.20;0.20;;;;;;;;;;5088373;28;20063;-69
2023/07/13 03:37:06;;;;;;;0.30;0.30;;;;;;;;;;5087794;28;20089;-69
2023/07/13 03:39:31;;;;;;;0.20;0.20;;;;;;;;;;5088079;28;20028;-71
2023/07/13 03:41:58;;;;;;;0.20;0.20;;;;;;;;;;5069382;28;20047;-70
2023/07/13 03:44:23;;;;;;;0.20;0.20;;;;;;;;;;5087470;28;20107;-71
2023/07/13 03:46:53;;;;;;;0.20;0.20;;;;;;;;;;5068902;28;20044;-72
2023/07/13 03:49:18;;;;;;;0.20;0.20;;;;;;;;;;5069963;28;20469;-73
2023/07/13 03:51:44;;;;;;;0.57;0.57;;;;;;;;;;5086438;28;20085;-74
2023/07/13 03:54:09;;;;;;;0.43;0.43;;;;;;;;;;5088277;28;20059;-70
2023/07/13 03:56:34;;;;;;;0.10;0.10;;;;;;;;;;5068430;28;20028;-70
2023/07/13 03:59:02;;;;;;;0.20;0.20;;;;;;;;;;5069014;28;20047;-72
2023/07/13 04:01:29;;;;;;;0.20;0.20;;;;;;;;;;5089451;28;20078;-74
2023/07/13 04:03:54;;;;;;;0.20;0.20;;;;;;;;;;5088456;28;20036;-70
2023/07/13 04:06:24;;;;;;;0.20;0.20;;;;;;;;;;5089442;28;20037;-72
2023/07/13 04:08:53;;;;;;;22.67;6.70;;;;;;;;;;5071391;28;20028;-70
2023/07/13 04:11:19;;;;;;;0.20;0.20;;;;;;;;;;5069943;28;20048;-72
2023/07/13 04:13:45;;;;;;;0.40;0.40;;;;;;;;;;5089217;28;20040;-71
2023/07/13 04:16:11;;;;;;;0.20;0.20;;;;;;;;;;5089626;28;20628;-72
2023/07/13 04:18:36;;;;;;;0.25;0.25;;;;;;;;;;5089829;28;20028;-71
2023/07/13 04:21:02;;;;;;;0.25;0.25;;;;;;;;;;5090529;28;20075;-71
2023/07/13 04:23:27;;;;;;;0.28;0.28;;;;;;;;;;5090176;28;20036;-70
2023/07/13 04:25:53;;;;;;;0.20;0.20;;;;;;;;;;5072854;28;20040;-70
2023/07/13 04:28:19;;;;;;;1.73;1.67;;;;;;;;;;5090581;28;20043;-71
2023/07/13 04:30:45;;;;;;;0.20;0.20;;;;;;;;;;5090615;28;20110;-71
2023/07/13 04:33:10;;;;;;;0.43;0.43;;;;;;;;;;5090796;28;20143;-73
2023/07/13 04:35:37;;;;;;;0.28;0.28;;;;;;;;;;5089220;28;20024;-71
2023/07/13 04:38:02;;;;;;;0.82;0.82;;;;;;;;;;5088126;28;20043;-70
2023/07/13 04:40:28;;;;;;;0.20;0.20;;;;;;;;;;5090395;28;20036;-71
2023/07/13 04:42:53;;;;;;;0.30;0.30;;;;;;;;;;5089322;28;20066;-71
2023/07/13 04:45:21;;;;;;;0.20;0.20;;;;;;;;;;5090231;28;20050;-72
2023/07/13 04:47:50;;;;;;;0.40;0.40;;;;;;;;;;5091000;28;20048;-69
2023/07/13 04:50:19;;;;;;;0.30;0.30;;;;;;;;;;5090382;28;20115;-70
2023/07/13 04:52:45;;;;;;;0.20;0.20;;;;;;;;;;5089265;28;20033;-70
2023/07/13 04:55:10;;;;;;;0.20;0.20;;;;;;;;;;5090442;28;20028;-74
2023/07/13 04:57:36;;;;;;;0.20;0.20;;;;;;;;;;5071656;28;20038;-71
2023/07/13 05:00:06;;;;;;;0.25;0.25;;;;;;;;;;5080156;28;20555;-70
2023/07/13 05:02:33;;;;;;;0.20;0.20;;;;;;;;;;5056268;28;20396;-71
2023/07/13 05:04:58;;;;;;;0.45;0.45;;;;;;;;;;5081025;28;20479;-71
2023/07/13 05:07:24;;;;;;;0.35;0.35;;;;;;;;;;5090137;28;20077;-74
2023/07/13 05:09:50;;;;;;;0.35;0.35;;;;;;;;;;5090176;28;20036;-73
2023/07/13 05:12:15;;;;;;;0.95;0.95;;;;;;;;;;5086511;28;20113;-73
2023/07/13 05:14:40;;;;;;;0.20;0.20;;;;;;;;;;5089035;28;20028;-71
2023/07/13 05:17:06;;;;;;;0.40;0.40;;;;;;;;;;5090310;28;20032;-70
2023/07/13 05:19:31;;;;;;;0.28;0.28;;;;;;;;;;5090516;28;20079;-70
2023/07/13 05:21:57;;;;;;;0.20;0.20;;;;;;;;;;5090067;28;20088;-69
2023/07/13 05:24:22;;;;;;;0.43;0.43;;;;;;;;;;5089753;28;20044;-70
2023/07/13 05:26:47;;;;;;;0.20;0.20;;;;;;;;;;5088654;28;20506;-70
2023/07/13 05:29:13;;;;;;;0.20;0.20;;;;;;;;;;5090021;28;20479;-70
2023/07/13 05:31:38;;;;;;;0.30;0.30;;;;;;;;;;5089772;28;20032;-70
2023/07/13 05:34:04;;;;;;;0.20;0.20;;;;;;;;;;5088657;28;20032;-70
2023/07/13 05:36:29;;;;;;;0.20;0.20;;;;;;;;;;5089591;28;20123;-70
2023/07/13 05:38:55;;;;;;;0.20;0.20;;;;;;;;;;5067472;28;20523;-71
2023/07/13 05:41:20;;;;;;;0.55;0.50;;;;;;;;;;5085882;28;20032;-73
2023/07/13 05:43:46;;;;;;;0.47;0.47;;;;;;;;;;5088850;28;20107;-71
2023/07/13 05:46:11;;;;;;;0.25;0.25;;;;;;;;;;5088928;28;20471;-72
2023/07/13 05:48:36;;;;;;;0.20;0.20;;;;;;;;;;5088730;28;20048;-71
2023/07/13 05:51:02;;;;;;;0.25;0.25;;;;;;;;;;5089126;28;20060;-71
2023/07/13 05:53:27;;;;;;;0.55;0.55;;;;;;;;;;5085188;28;20089;-70
2023/07/13 05:55:54;;;;;;;0.30;0.30;;;;;;;;;;5087564;28;20074;-71
2023/07/13 05:58:19;;;;;;;0.20;0.20;;;;;;;;;;5087394;28;20032;-70
2023/07/13 06:00:45;;;;;;;0.30;0.30;;;;;;;;;;5084654;28;20081;-70
2023/07/13 06:03:11;;;;;;;0.20;0.20;;;;;;;;;;5086481;28;20050;-71
2023/07/13 06:05:37;;;;;;;0.22;0.22;;;;;;;;;;5087544;28;20519;-70
2023/07/13 06:08:03;;;;;;;0.40;0.40;;;;;;;;;;5087705;28;20127;-70
2023/07/13 06:10:29;;;;;;;0.20;0.20;;;;;;;;;;5070803;28;20096;-72
2023/07/13 06:12:54;;;;;;;0.20;0.20;;;;;;;;;;5086898;28;20570;-70
2023/07/13 06:15:20;;;;;;;0.47;0.47;;;;;;;;;;5081796;28;20035;-72
2023/07/13 06:17:46;;;;;;;0.25;0.25;;;;;;;;;;5076404;28;20063;-73
2023/07/13 06:20:11;;;;;;;0.20;0.20;;;;;;;;;;5083744;28;20028;-70
2023/07/13 06:22:37;;;;;;;0.30;0.30;;;;;;;;;;5081669;28;20566;-71
2023/07/13 06:25:02;;;;;;;0.20;0.20;;;;;;;;;;5082247;28;20028;-73
2023/07/13 06:27:28;;;;;;;0.32;0.32;;;;;;;;;;5079803;28;20542;-72
2023/07/13 06:29:53;;;;;;;0.28;0.28;;;;;;;;;;5068826;28;20032;-71
2023/07/13 06:32:19;;;;;;;0.40;0.40;;;;;;;;;;5079030;28;20028;-72
2023/07/13 06:34:44;;;;;;;0.73;0.68;;;;;;;;;;5068215;28;20426;-71
2023/07/13 06:37:10;;;;;;;0.20;0.20;;;;;;;;;;5085150;28;20039;-70
2023/07/13 06:39:36;;;;;;;0.30;0.30;;;;;;;;;;5059794;28;20028;-75
2023/07/13 06:42:01;;;;;;;0.35;0.35;;;;;;;;;;5077163;28;20043;-75
2023/07/13 06:44:26;;;;;;;0.30;0.30;;;;;;;;;;5089618;28;20036;-74
2023/07/13 06:46:52;;;;;;;0.50;0.50;;;;;;;;;;5078842;28;20048;-74
2023/07/13 06:49:17;;;;;;;1.23;0.75;;;;;;;;;;5076700;28;20063;-73
2023/07/13 06:51:43;;;;;;;0.40;0.40;;;;;;;;;;5070119;28;20032;-74
2023/07/13 06:54:08;;;;;;;0.30;0.30;;;;;;;;;;5088559;28;20162;-73
2023/07/13 06:56:34;;;;;;;0.50;0.50;;;;;;;;;;5080980;28;20451;-74
2023/07/13 06:58:59;;;;;;;0.30;0.30;;;;;;;;;;5070133;28;20024;-78
2023/07/13 07:01:25;;;;;;;20.92;19.38;;;;;;;;;;5085502;28;20039;-76
2023/07/13 07:03:50;;;;;;;0.55;0.55;;;;;;;;;;5068453;28;20742;-77
2023/07/13 07:06:17;;;;;;;0.28;0.28;;;;;;;;;;5084942;28;20035;-77
2023/07/13 07:08:42;;;;;;;0.30;0.30;;;;;;;;;;5086244;28;20036;-76
2023/07/13 07:11:09;;;;;;;0.30;0.30;;;;;;;;;;5086699;28;20506;-77
2023/07/13 07:13:34;;;;;;;0.40;0.40;;;;;;;;;;5086475;28;20047;-76
2023/07/13 07:16:00;;;;;;;0.65;0.65;;;;;;;;;;5087075;28;20139;-76
2023/07/13 07:18:26;;;;;;;0.30;0.30;;;;;;;;;;5086566;28;20083;-77
2023/07/13 07:20:51;;;;;;;0.40;0.40;;;;;;;;;;5085396;28;20035;-76
2023/07/13 07:23:17;;;;;;;1.42;1.08;;;;;;;;;;5084798;28;20046;-77
2023/07/13 07:25:43;;;;;;;0.40;0.40;;;;;;;;;;5085135;28;20376;-76
2023/07/13 07:28:09;;;;;;;0.32;0.32;;;;;;;;;;5065940;28;20036;-77
2023/07/13 07:30:35;;;;;;;2.10;1.27;;;;;;;;;;5067299;28;20017;-76
2023/07/13 07:33:01;;;;;;;0.50;0.50;;;;;;;;;;5081376;28;20052;-75
2023/07/13 07:35:26;;;;;;;1.10;1.00;;;;;;;;;;5069284;28;20039;-76
2023/07/13 07:37:51;;;;;;;0.30;0.30;;;;;;;;;;5071356;28;20029;-75
2023/07/13 07:40:17;;;;;;;0.30;0.30;;;;;;;;;;5070931;28;20468;-77
2023/07/13 07:42:42;;;;;;;0.40;0.40;;;;;;;;;;5071022;28;20689;-77
2023/07/13 07:45:11;;;;;;;0.32;0.32;;;;;;;;;;5082128;28;20024;-75
2023/07/13 07:47:36;;;;;;;0.70;0.70;;;;;;;;;;5078260;28;20062;-75
2023/07/13 07:50:02;;;;;;;0.50;0.50;;;;;;;;;;5052671;28;20475;-74
2023/07/13 07:52:27;;;;;;;1.45;1.13;;;;;;;;;;5070586;28;20028;-75
2023/07/13 07:54:53;;;;;;;1.02;0.93;;;;;;;;;;5070796;28;20111;-76
2023/07/13 07:57:18;;;;;;;0.60;0.60;;;;;;;;;;5085262;28;20031;-76
2023/07/13 07:59:44;;;;;;;0.73;0.73;;;;;;;;;;5099927;28;20075;-76
2023/07/13 08:02:10;;;;;;;0.30;0.30;;;;;;;;;;5072512;28;20445;-75
2023/07/13 08:04:35;;;;;;;0.60;0.60;;;;;;;;;;5090138;28;20068;-76
2023/07/13 08:07:02;;;;;;;0.63;0.60;;;;;;;;;;5090914;28;20063;-79
2023/07/13 08:09:28;;;;;;;0.32;0.32;;;;;;;;;;5091370;28;20060;-76
2023/07/13 08:11:54;;;;;;;0.63;0.63;;;;;;;;;;5088287;28;20419;-77
2023/07/13 08:14:20;;;;;;;0.50;0.50;;;;;;;;;;5086546;28;20020;-77
2023/07/13 08:16:45;;;;;;;0.50;0.50;;;;;;;;;;5056562;28;20036;-77
2023/07/13 08:19:11;;;;;;;0.88;0.82;;;;;;;;;;5096457;28;20024;-76
2023/07/13 08:21:36;;;;;;;0.80;0.80;;;;;;;;;;5088431;28;20067;-76
2023/07/13 08:24:02;;;;;;;0.60;0.60;;;;;;;;;;5082934;28;20029;-75
2023/07/13 08:26:27;;;;;;;0.73;0.73;;;;;;;;;;5074727;28;20032;-75
2023/07/13 08:28:53;;;;;;;1.83;1.30;;;;;;;;;;5055339;28;20047;-75
2023/07/13 08:31:18;;;;;;;0.40;0.40;;;;;;;;;;5083244;28;20115;-75
2023/07/13 08:33:44;;;;;;;2.00;1.65;;;;;;;;;;5089868;28;20150;-75
2023/07/13 08:36:09;;;;;;;0.68;0.68;;;;;;;;;;5089855;28;20474;-74
2023/07/13 08:38:35;;;;;;;0.43;0.43;;;;;;;;;;5090748;28;20036;-76
2023/07/13 08:41:02;;;;;;;0.95;0.85;;;;;;;;;;5090177;28;20031;-76
2023/07/13 08:43:30;;;;;;;1.85;1.27;;;;;;;;;;5088612;28;20121;-75
2023/07/13 08:46:10;;;;;;;2.88;2.67;;;;;;;;;;5088070;28;20028;-75
2023/07/13 08:48:39;;;;;;;1.73;1.27;;;;;;;;;;5081754;28;20036;-75
2023/07/13 08:51:16;;;;;;;0.82;0.82;;;;;;;;;;5098051;28;20054;-74
2023/07/13 08:53:45;;;;;;;1.15;0.90;;;;;;;;;;5068124;28;20238;-74
2023/07/13 08:56:14;;;;;;;5.05;1.20;;;;;;;;;;5050024;28;20036;-75
2023/07/13 08:58:41;;;;;;;1.13;1.02;;;;;;;;;;5065142;28;20048;-73
2023/07/13 09:01:10;;;;;;;1.52;0.80;;;;;;;;;;5089649;28;20044;-74
2023/07/13 09:03:40;;;;;;;1.20;0.70;;;;;;;;;;5080347;28;20047;-75
2023/07/13 09:06:07;;;;;;;1.75;1.00;;;;;;;;;;5069211;28;20522;-75
2023/07/13 09:08:48;;;;;;;2.67;1.10;;;;;;;;;;5090066;28;20036;-74
2023/07/13 09:11:19;;;;;;;6.85;2.00;;;;;;;;;;5097915;28;20028;-74
2023/07/13 09:13:45;;;;;;;0.57;0.57;;;;;;;;;;5091053;28;20350;-74
2023/07/13 09:16:11;;;;;;;3.63;1.80;;;;;;;;;;5089781;28;20157;-74
2023/07/13 09:18:45;;;;;;;2.70;1.60;;;;;;;;;;5089049;28;20036;-74
2023/07/13 09:21:40;;;;;;;1.10;1.00;;;;;;;;;;5089630;28;20063;-74
2023/07/13 09:24:20;;;;;;;0.60;0.50;;;;;;;;;;5076020;28;20109;-74
2023/07/13 09:26:45;;;;;;;1.02;0.93;;;;;;;;;;5089445;28;20361;-74
2023/07/13 09:29:13;;;;;;;0.60;0.60;;;;;;;;;;5091809;28;20019;-73
2023/07/13 09:31:42;;;;;;;0.80;0.73;;;;;;;;;;5098656;28;20457;-75
2023/07/13 09:34:11;;;;;;;1.27;1.02;;;;;;;;;;5061257;28;20024;-74
2023/07/13 09:36:36;;;;;;;2.10;1.42;;;;;;;;;;5076862;28;20422;-73
2023/07/13 09:39:08;;;;;;;2.35;1.40;;;;;;;;;;5088785;28;20036;-73
2023/07/13 09:41:33;;;;;;;1.13;0.75;;;;;;;;;;5089122;28;20475;-75
2023/07/13 09:44:11;;;;;;;0.63;0.63;;;;;;;;;;5089282;28;20039;-73
2023/07/13 09:46:37;;;;;;;0.98;0.88;;;;;;;;;;5066721;28;20076;-74
2023/07/13 09:49:02;;;;;;;1.38;1.05;;;;;;;;;;5083347;28;20072;-74
2023/07/13 09:51:28;;;;;;;1.73;1.60;;;;;;;;;;5088667;28;20032;-73
2023/07/13 09:53:54;;;;;;;3.35;1.85;;;;;;;;;;5088716;28;20081;-73
2023/07/13 09:56:21;;;;;;;1.42;1.08;;;;;;;;;;5089182;28;20114;-74
2023/07/13 09:58:46;;;;;;;2.05;1.30;;;;;;;;;;5071011;28;20491;-74
2023/07/13 10:01:12;;;;;;;2.28;1.67;;;;;;;;;;5095629;28;20023;-75
2023/07/13 10:03:37;;;;;;;0.60;0.60;;;;;;;;;;5091988;28;20059;-74
2023/07/13 10:06:15;;;;;;;1.55;1.02;;;;;;;;;;5050414;28;20041;-74
2023/07/13 10:08:41;;;;;;;2.42;1.35;;;;;;;;;;5083601;28;20032;-74
2023/07/13 10:11:17;;;;;;;0.93;0.80;;;;;;;;;;5070389;28;20096;-73
2023/07/13 10:14:03;;;;;;;0.80;0.80;;;;;;;;;;5070192;28;20135;-73
2023/07/13 10:16:33;;;;;;;3.47;2.55;;;;;;;;;;5088365;28;20044;-73
2023/07/13 10:19:01;;;;;;;0.70;0.60;;;;;;;;;;5088942;28;20081;-75
2023/07/13 10:21:38;;;;;;;1.27;1.10;;;;;;;;;;5088461;28;20028;-75
2023/07/13 10:24:15;;;;;;;2.95;1.35;;;;;;;;;;5088811;28;20044;-74
2023/07/13 10:26:45;;;;;;;0.40;0.40;;;;;;;;;;5088563;28;20115;-73
2023/07/13 10:29:12;;;;;;;0.47;0.47;;;;;;;;;;5088455;28;20097;-75
2023/07/13 10:31:38;;;;;;;1.35;1.25;;;;;;;;;;5088704;28;20031;-73
2023/07/13 10:34:05;;;;;;;4.90;1.00;;;;;;;;;;5069587;28;20039;-74
2023/07/13 10:36:49;;;;;;;0.47;0.47;;;;;;;;;;5088732;28;20035;-74
2023/07/13 10:39:17;;;;;;;3.92;1.30;;;;;;;;;;5088303;28;20032;-75
2023/07/13 10:41:44;;;;;;;1.88;0.98;;;;;;;;;;5070457;28;20553;-74
2023/07/13 10:44:18;;;;;;;3.33;1.90;;;;;;;;;;5088687;28;20032;-75
2023/07/13 10:46:44;;;;;;;1.98;1.65;;;;;;;;;;5088655;28;20032;-73
2023/07/13 10:49:11;;;;;;;0.77;0.77;;;;;;;;;;5088217;28;20032;-74
2023/07/13 10:51:37;;;;;;;3.28;1.35;;;;;;;;;;5068301;28;20040;-73
2023/07/13 10:54:17;;;;;;;2.10;1.38;;;;;;;;;;5068236;28;20044;-72
2023/07/13 10:56:43;;;;;;;1.20;1.00;;;;;;;;;;5070718;28;20033;-74
2023/07/13 10:59:09;;;;;;;0.82;0.80;;;;;;;;;;5088094;28;20036;-73
2023/07/13 11:01:54;;;;;;;1.15;1.00;;;;;;;;;;5088339;28;20035;-74
2023/07/13 11:04:20;;;;;;;0.60;0.60;;;;;;;;;;5082112;28;20051;-74
2023/07/13 11:06:49;;;;;;;0.80;0.70;;;;;;;;;;5068146;28;20029;-74
2023/07/13 11:09:19;;;;;;;0.95;0.95;;;;;;;;;;5068307;28;20064;-73
2023/07/13 11:11:45;;;;;;;2.25;1.23;;;;;;;;;;5053479;28;20033;-73
2023/07/13 11:14:19;;;;;;;1.83;1.67;;;;;;;;;;5058876;28;20024;-73
2023/07/13 11:16:46;;;;;;;4.13;0.80;;;;;;;;;;5091674;28;20024;-73
2023/07/13 11:19:14;;;;;;;0.68;0.68;;;;;;;;;;5090871;28;20031;-73
2023/07/13 11:21:58;;;;;;;1.88;1.15;;;;;;;;;;5091872;28;20031;-74
2023/07/13 11:24:28;;;;;;;2.08;1.60;;;;;;;;;;5091451;28;20032;-73
2023/07/13 11:26:55;;;;;;;1.60;1.08;;;;;;;;;;5069913;28;20032;-72
2023/07/13 11:29:25;;;;;;;1.85;1.13;;;;;;;;;;5071162;28;20068;-74
2023/07/13 11:31:55;;;;;;;3.25;2.00;;;;;;;;;;5070308;28;20553;-73
2023/07/13 11:34:26;;;;;;;1.77;1.67;;;;;;;;;;5088707;28;20070;-74
2023/07/13 11:36:52;;;;;;;8.55;1.10;;;;;;;;;;5090916;28;20387;-74
2023/07/13 11:39:20;;;;;;;8.75;1.05;;;;;;;;;;5091442;28;20319;-74
2023/07/13 11:41:51;;;;;;;3.25;3.03;;;;;;;;;;5090586;28;20085;-74
2023/07/13 11:44:19;;;;;;;1.40;0.68;;;;;;;;;;5091795;28;20036;-74
2023/07/13 11:46:45;;;;;;;5.93;1.30;;;;;;;;;;5090235;28;20067;-75
2023/07/13 11:49:13;;;;;;;2.70;1.60;;;;;;;;;;5090354;28;20285;-76
2023/07/13 11:51:38;;;;;;;2.03;1.83;;;;;;;;;;5091043;28;20054;-76
2023/07/13 11:54:15;;;;;;;8.98;1.48;;;;;;;;;;5072626;28;20483;-75
2023/07/13 11:56:40;;;;;;;0.73;0.73;;;;;;;;;;5091147;28;20119;-76
2023/07/13 11:59:07;;;;;;;5.57;1.58;;;;;;;;;;5091541;28;20111;-75
2023/07/13 12:01:33;;;;;;;1.00;0.98;;;;;;;;;;5093710;28;20032;-76
2023/07/13 12:04:03;;;;;;;0.60;0.60;;;;;;;;;;5105191;28;20032;-74
2023/07/13 12:06:30;;;;;;;0.40;0.40;;;;;;;;;;5090459;28;20020;-75
2023/07/13 12:08:56;;;;;;;0.77;0.68;;;;;;;;;;5090669;28;20040;-75
2023/07/13 12:11:22;;;;;;;0.55;0.55;;;;;;;;;;5090936;28;20039;-75
2023/07/13 12:13:48;;;;;;;1.38;1.02;;;;;;;;;;5090852;28;20023;-76
2023/07/13 12:16:15;;;;;;;1.85;1.25;;;;;;;;;;5090799;28;20032;-75
2023/07/13 12:18:44;;;;;;;0.40;0.40;;;;;;;;;;5092874;28;20024;-75
2023/07/13 12:21:12;;;;;;;0.43;0.43;;;;;;;;;;5083801;28;20139;-75
2023/07/13 12:23:38;;;;;;;0.60;0.60;;;;;;;;;;5069676;28;20036;-74
2023/07/13 12:26:04;;;;;;;1.35;1.25;;;;;;;;;;5090423;28;20039;-73
2023/07/13 12:28:30;;;;;;;2.92;0.95;;;;;;;;;;5092630;28;20344;-74
2023/07/13 12:30:58;;;;;;;2.80;2.50;;;;;;;;;;5091229;28;20035;-74
2023/07/13 12:33:24;;;;;;;1.45;1.00;;;;;;;;;;5079237;28;20053;-74
2023/07/13 12:35:55;;;;;;;1.00;0.90;;;;;;;;;;5083010;28;20036;-75
2023/07/13 12:38:22;;;;;;;0.43;0.43;;;;;;;;;;5090215;28;20028;-73
2023/07/13 12:40:50;;;;;;;0.63;0.40;;;;;;;;;;5084938;28;20051;-74
2023/07/13 12:43:16;;;;;;;1.50;0.98;;;;;;;;;;5087913;28;20028;-74
2023/07/13 12:46:00;;;;;;;0.45;0.45;;;;;;;;;;5090771;28;20426;-75
2023/07/13 12:48:26;;;;;;;1.05;0.52;;;;;;;;;;5067845;28;20110;-74
2023/07/13 12:50:52;;;;;;;0.57;0.57;;;;;;;;;;5068228;28;20467;-76
2023/07/13 12:53:28;;;;;;;1.02;0.50;;;;;;;;;;5082516;28;20075;-74
2023/07/13 12:55:55;;;;;;;0.45;0.45;;;;;;;;;;5091995;28;20035;-76
2023/07/13 12:58:31;;;;;;;1.25;0.85;;;;;;;;;;5087634;28;20419;-74
2023/07/13 13:00:58;;;;;;;1.90;1.50;;;;;;;;;;5088193;28;20038;-74
2023/07/13 13:03:23;;;;;;;4.60;1.17;;;;;;;;;;5079952;28;20066;-74
2023/07/13 13:05:48;;;;;;;7.63;2.40;;;;;;;;;;5083180;28;20414;-75
2023/07/13 13:08:14;;;;;;;6.05;2.85;;;;;;;;;;5089126;28;20043;-75
2023/07/13 13:10:40;;;;;;;1.52;0.93;;;;;;;;;;5088991;28;20383;-74
2023/07/13 13:13:05;;;;;;;0.60;0.60;;;;;;;;;;5071774;28;20047;-74
2023/07/13 13:15:31;;;;;;;0.60;0.60;;;;;;;;;;5095110;28;20053;-74
2023/07/13 13:17:58;;;;;;;3.08;2.35;;;;;;;;;;5091986;28;20062;-74
2023/07/13 13:20:25;;;;;;;1.27;0.80;;;;;;;;;;5089632;28;20038;-74
2023/07/13 13:22:51;;;;;;;1.23;0.88;;;;;;;;;;5089809;28;20064;-73
2023/07/13 13:25:17;;;;;;;0.65;0.65;;;;;;;;;;5089683;28;20081;-74
2023/07/13 13:27:44;;;;;;;0.30;0.30;;;;;;;;;;5078215;28;20036;-73
2023/07/13 13:30:17;;;;;;;0.60;0.60;;;;;;;;;;5069518;28;20108;-75
2023/07/13 13:32:44;;;;;;;1.25;1.13;;;;;;;;;;5069655;28;20033;-76
2023/07/13 13:35:17;;;;;;;0.70;0.70;;;;;;;;;;5073598;28;20041;-74
2023/07/13 13:37:43;;;;;;;1.33;1.08;;;;;;;;;;5058623;28;20032;-74
2023/07/13 13:40:16;;;;;;;1.55;1.25;;;;;;;;;;5054032;28;20494;-74
2023/07/13 13:42:42;;;;;;;0.80;0.80;;;;;;;;;;5085287;28;20085;-74
2023/07/13 13:45:09;;;;;;;2.60;0.93;;;;;;;;;;5089286;28;20027;-73
2023/07/13 13:47:36;;;;;;;0.60;0.60;;;;;;;;;;5089219;28;20483;-73
2023/07/13 13:50:02;;;;;;;1.40;0.68;;;;;;;;;;5089157;28;20383;-72
2023/07/13 13:52:27;;;;;;;4.05;1.42;;;;;;;;;;5088514;28;20035;-75
2023/07/13 13:54:56;;;;;;;1.15;0.77;;;;;;;;;;5087188;28;20020;-75
2023/07/13 13:57:29;;;;;;;2.22;1.42;;;;;;;;;;5096489;28;20557;-76
2023/07/13 13:59:55;;;;;;;1.63;0.80;;;;;;;;;;5107788;28;20130;-74
2023/07/13 14:02:25;;;;;;;0.40;0.40;;;;;;;;;;5087876;28;20032;-74
2023/07/13 14:04:54;;;;;;;0.40;0.40;;;;;;;;;;5086713;28;20035;-75
2023/07/13 14:07:19;;;;;;;0.57;0.57;;;;;;;;;;5086245;28;20028;-74
2023/07/13 14:09:44;;;;;;;2.47;1.48;;;;;;;;;;5067186;28;20034;-74
2023/07/13 14:12:11;;;;;;;0.80;0.77;;;;;;;;;;5084925;28;20040;-74
2023/07/13 14:14:37;;;;;;;2.13;1.30;;;;;;;;;;5084735;28;20539;-75
2023/07/13 14:17:02;;;;;;;1.25;0.90;;;;;;;;;;5084973;28;20111;-75
2023/07/13 14:19:28;;;;;;;2.95;1.52;;;;;;;;;;5066557;28;20388;-75
2023/07/13 14:21:53;;;;;;;2.00;1.10;;;;;;;;;;5064677;28;20357;-76
2023/07/13 14:24:18;;;;;;;0.80;0.80;;;;;;;;;;5066002;28;20060;-75
2023/07/13 14:26:46;;;;;;;4.40;2.92;;;;;;;;;;5066509;28;20032;-74
2023/07/13 14:29:13;;;;;;;1.23;0.90;;;;;;;;;;5048515;28;20040;-75
2023/07/13 14:31:38;;;;;;;0.95;0.75;;;;;;;;;;5069185;28;20124;-74
2023/07/13 14:34:04;;;;;;;0.45;0.45;;;;;;;;;;5074413;28;20466;-75
2023/07/13 14:36:34;;;;;;;5.40;0.90;;;;;;;;;;5091273;28;20032;-75
2023/07/13 14:39:06;;;;;;;1.17;1.08;;;;;;;;;;5087573;28;20097;-75
2023/07/13 14:41:31;;;;;;;2.38;2.13;;;;;;;;;;5091697;28;20036;-75
2023/07/13 14:43:57;;;;;;;3.03;1.30;;;;;;;;;;5083651;28;20028;-74